createdAt,value
2022-07-29T00:00:40.897Z,100737.97
2022-07-29T00:03:29.107Z,100734.91
2022-07-29T00:06:09.878Z,100738.47
2022-07-29T00:08:57.873Z,100735.41
2022-07-29T00:11:45.909Z,100731.41
2022-07-29T00:14:36.084Z,100734.53
2022-07-29T00:17:19.067Z,100733.81
2022-07-29T00:20:00.615Z,100726.03
2022-07-29T00:22:51.827Z,100729.91
2022-07-29T00:25:40.040Z,100729.28
2022-07-29T00:28:27.790Z,100726.22
2022-07-29T00:31:18.052Z,100727.44
2022-07-29T00:34:06.796Z,100726.06
2022-07-29T00:36:53.822Z,100736.56
2022-07-29T00:39:35.542Z,100730.56
2022-07-29T00:42:23.768Z,100739.47
2022-07-29T00:45:12.796Z,100726.16
2022-07-29T00:47:55.993Z,100730.56
2022-07-29T00:50:44.809Z,100738.47
2022-07-29T00:53:27.085Z,100732.25
2022-07-29T00:56:14.801Z,100736.78
2022-07-29T00:59:05.830Z,100739.47
2022-07-29T01:01:53.783Z,100735.69
2022-07-29T01:04:43.764Z,100733.31
2022-07-29T01:07:32.737Z,100738.69
2022-07-29T01:10:17.800Z,100732.84
2022-07-29T01:13:08.540Z,100740.19
2022-07-29T01:15:54.501Z,100731.75
2022-07-29T01:18:46.721Z,100740.03
2022-07-29T01:21:56.704Z,100737.16
2022-07-29T01:25:08.716Z,100729.66
2022-07-29T01:28:16.726Z,100724.34
2022-07-29T01:31:02.626Z,100729.59
2022-07-29T01:33:59.701Z,100737.25
2022-07-29T01:36:47.916Z,100741.09
2022-07-29T01:39:41.703Z,100734.06
2022-07-29T01:42:38.674Z,100736.69
2022-07-29T01:45:30.697Z,100739.69
2022-07-29T01:48:24.806Z,100739.69
2022-07-29T01:51:11.940Z,100725.41
2022-07-29T01:54:03.667Z,100732.47
2022-07-29T01:56:53.669Z,100724.78
2022-07-29T01:59:43.721Z,100721.22
2022-07-29T02:02:26.885Z,100723.75
2022-07-29T02:05:20.723Z,100722.25
2022-07-29T02:08:10.659Z,100729.06
2022-07-29T02:11:01.686Z,100720.56
2022-07-29T02:13:52.651Z,100720.56
2022-07-29T02:16:43.658Z,100716.56
2022-07-29T02:19:27.009Z,100718.31
2022-07-29T02:22:19.655Z,100715.25
2022-07-29T02:25:14.110Z,100712.53
2022-07-29T02:28:10.600Z,100713.66
2022-07-29T02:31:00.662Z,100717.22
2022-07-29T02:33:50.631Z,100717.41
2022-07-29T02:36:33.620Z,100724.81
2022-07-29T02:39:24.615Z,100722.41
2022-07-29T02:42:09.432Z,100714.34
2022-07-29T02:44:57.580Z,100718.84
2022-07-29T02:47:50.602Z,100722.69
2022-07-29T02:50:45.591Z,100725.31
2022-07-29T02:53:35.595Z,100734.31
2022-07-29T02:56:22.803Z,100731.00
2022-07-29T02:59:19.575Z,100734.91
2022-07-29T03:02:09.621Z,100730.72
2022-07-29T03:05:00.632Z,100723.69
2022-07-29T03:07:50.573Z,100713.22
2022-07-29T03:10:39.585Z,100710.78
2022-07-29T03:13:24.777Z,100713.47
2022-07-29T03:16:13.601Z,100714.78
2022-07-29T03:18:55.757Z,100716.06
2022-07-29T03:21:43.674Z,100711.22
2022-07-29T03:24:38.764Z,100708.69
2022-07-29T03:27:27.550Z,100713.09
2022-07-29T03:30:25.534Z,100712.13
2022-07-29T03:33:13.331Z,100709.63
2022-07-29T03:36:01.588Z,100718.50
2022-07-29T03:38:52.718Z,100712.88
2022-07-29T03:41:34.540Z,100717.44
2022-07-29T03:44:23.715Z,100722.03
2022-07-29T03:47:10.519Z,100726.41
2022-07-29T03:50:02.503Z,100722.13
2022-07-29T03:52:45.399Z,100728.22
2022-07-29T03:55:37.540Z,100728.22
2022-07-29T03:58:19.689Z,100722.22
2022-07-29T04:01:08.504Z,100727.75
2022-07-29T04:03:58.505Z,100722.66
2022-07-29T04:06:48.582Z,100729.75
2022-07-29T04:09:29.665Z,100726.41
2022-07-29T04:12:18.472Z,100733.22
2022-07-29T04:14:59.710Z,100730.50
2022-07-29T04:17:47.444Z,100736.53
2022-07-29T04:20:39.473Z,100736.34
2022-07-29T04:23:27.698Z,100732.03
2022-07-29T04:26:09.479Z,100734.75
2022-07-29T04:28:58.446Z,100736.41
2022-07-29T04:31:46.547Z,100735.66
2022-07-29T04:34:34.666Z,100733.31
2022-07-29T04:37:18.559Z,100728.91
2022-07-29T04:40:06.698Z,100729.84
2022-07-29T04:42:48.441Z,100728.34
2022-07-29T04:45:31.182Z,100727.69
2022-07-29T04:48:19.428Z,100720.94
2022-07-29T04:51:07.434Z,100722.03
2022-07-29T04:53:57.546Z,100734.56
2022-07-29T04:56:39.146Z,100731.28
2022-07-29T04:59:27.406Z,100731.41
2022-07-29T05:02:15.667Z,100727.19
2022-07-29T05:04:57.406Z,100732.75
2022-07-29T05:07:45.535Z,100734.63
2022-07-29T05:10:29.101Z,100744.00
2022-07-29T05:13:16.517Z,100743.00
2022-07-29T05:15:59.319Z,100741.88
2022-07-29T05:18:48.438Z,100749.50
2022-07-29T05:21:29.566Z,100757.28
2022-07-29T05:24:17.782Z,100761.41
2022-07-29T05:27:00.571Z,100753.38
2022-07-29T05:29:48.355Z,100760.78
2022-07-29T05:32:29.937Z,100762.22
2022-07-29T05:35:19.355Z,100758.31
2022-07-29T05:38:07.366Z,100761.31
2022-07-29T05:40:55.347Z,100766.78
2022-07-29T05:43:38.670Z,100761.84
2022-07-29T05:46:27.393Z,100770.00
2022-07-29T05:49:08.606Z,100768.06
2022-07-29T05:51:57.371Z,100768.53
2022-07-29T05:54:38.540Z,100770.59
2022-07-29T05:57:28.357Z,100775.34
2022-07-29T06:00:12.790Z,100777.41
2022-07-29T06:03:01.319Z,100777.50
2022-07-29T06:05:49.305Z,100781.03
2022-07-29T06:08:37.564Z,100775.25
2022-07-29T06:11:18.310Z,100772.13
2022-07-29T06:14:06.292Z,100780.56
2022-07-29T06:16:49.597Z,100789.81
2022-07-29T06:19:38.289Z,100776.53
2022-07-29T06:22:19.513Z,100783.84
2022-07-29T06:25:07.286Z,100781.22
2022-07-29T06:27:55.267Z,100795.44
2022-07-29T06:30:43.541Z,100803.03
2022-07-29T06:33:29.498Z,100797.47
2022-07-29T06:36:18.288Z,100801.03
2022-07-29T06:39:06.260Z,100800.59
2022-07-29T06:41:56.479Z,100789.94
2022-07-29T06:44:38.295Z,100799.88
2022-07-29T06:47:19.703Z,100799.19
2022-07-29T06:50:09.255Z,100804.75
2022-07-29T06:52:57.506Z,100805.59
2022-07-29T06:55:38.295Z,100802.38
2022-07-29T06:58:26.727Z,100806.59
2022-07-29T07:01:11.278Z,100813.47
2022-07-29T07:04:01.229Z,100813.47
2022-07-29T07:06:51.221Z,100812.75
2022-07-29T07:09:41.030Z,100804.75
2022-07-29T07:12:22.428Z,100812.97
2022-07-29T07:15:11.223Z,100819.00
2022-07-29T07:17:53.456Z,100824.06
2022-07-29T07:20:41.209Z,100820.28
2022-07-29T07:23:31.218Z,100829.19
2022-07-29T07:26:12.983Z,100834.25
2022-07-29T07:29:01.343Z,100825.97
2022-07-29T07:31:43.084Z,100819.38
2022-07-29T07:34:31.201Z,100817.44
2022-07-29T07:37:13.012Z,100828.28
2022-07-29T07:40:03.189Z,100829.84
2022-07-29T07:42:51.181Z,100826.09
2022-07-29T07:45:33.626Z,100832.22
2022-07-29T07:48:21.221Z,100824.44
2022-07-29T07:51:02.413Z,100832.50
2022-07-29T07:53:52.217Z,100838.59
2022-07-29T07:56:35.558Z,100834.03
2022-07-29T07:59:23.185Z,100831.47
2022-07-29T08:02:04.526Z,100833.16
2022-07-29T08:04:52.167Z,100833.81
2022-07-29T08:07:33.396Z,100838.25
2022-07-29T08:10:22.153Z,100831.97
2022-07-29T08:13:05.383Z,100842.53
2022-07-29T08:15:53.145Z,100840.94
2022-07-29T08:18:35.359Z,100851.28
2022-07-29T08:21:24.158Z,100846.91
2022-07-29T08:24:26.126Z,100840.09
2022-07-29T08:27:40.807Z,100844.81
2022-07-29T08:30:30.124Z,100841.19
2022-07-29T08:33:18.134Z,100840.00
2022-07-29T08:35:59.352Z,100841.97
2022-07-29T08:38:47.111Z,100833.47
2022-07-29T08:41:36.138Z,100834.50
2022-07-29T08:44:31.058Z,100838.03
2022-07-29T08:47:14.125Z,100836.38
2022-07-29T08:50:02.101Z,100827.44
2022-07-29T08:52:45.355Z,100835.53
2022-07-29T08:55:33.205Z,100833.06
2022-07-29T08:58:15.680Z,100833.50
2022-07-29T09:01:05.164Z,100825.56
2022-07-29T09:03:59.139Z,100837.19
2022-07-29T09:06:52.094Z,100837.44
2022-07-29T09:09:33.792Z,100825.56
2022-07-29T09:12:29.319Z,100833.66
2022-07-29T09:15:12.315Z,100838.06
2022-07-29T09:18:00.067Z,100830.94
2022-07-29T09:21:08.098Z,100830.75
2022-07-29T09:24:03.812Z,100835.78
2022-07-29T09:26:55.374Z,100834.22
2022-07-29T09:29:51.045Z,100839.44
2022-07-29T09:32:40.064Z,100841.00
2022-07-29T09:35:27.287Z,100842.69
2022-07-29T09:38:23.072Z,100843.88
2022-07-29T09:41:09.115Z,100841.84
2022-07-29T09:44:03.151Z,100838.53
2022-07-29T09:46:44.370Z,100830.44
2022-07-29T09:49:32.145Z,100836.38
2022-07-29T09:52:15.316Z,100834.63
2022-07-29T09:55:18.157Z,100827.75
2022-07-29T09:57:59.267Z,100831.56
2022-07-29T10:00:51.117Z,100834.03
2022-07-29T10:03:39.076Z,100833.00
2022-07-29T10:06:20.833Z,100838.66
2022-07-29T10:09:10.005Z,100836.25
2022-07-29T10:12:17.391Z,100835.56
2022-07-29T10:14:59.022Z,100835.91
2022-07-29T10:17:47.246Z,100837.44
2022-07-29T10:20:29.019Z,100848.09
2022-07-29T10:23:24.980Z,100846.31
2022-07-29T10:26:12.982Z,100847.44
2022-07-29T10:29:08.966Z,100848.50
2022-07-29T10:32:18.002Z,100857.34
2022-07-29T10:35:34.149Z,100858.22
2022-07-29T10:38:51.964Z,100858.69
2022-07-29T10:42:20.101Z,100862.69
2022-07-29T10:45:18.969Z,100869.38
2022-07-29T10:48:19.190Z,100869.44
2022-07-29T10:51:03.916Z,100875.66
2022-07-29T10:54:03.058Z,100871.47
2022-07-29T10:56:44.951Z,100873.72
2022-07-29T10:59:38.975Z,100874.00
2022-07-29T11:03:04.544Z,100882.94
2022-07-29T11:06:11.959Z,100890.16
2022-07-29T11:12:55.960Z,100885.28
2022-07-29T11:16:02.166Z,100878.41
2022-07-29T11:18:42.910Z,100892.13
2022-07-29T11:21:55.096Z,100884.84
2022-07-29T11:24:50.427Z,100890.16
2022-07-29T11:27:40.666Z,100884.66
2022-07-29T11:30:29.908Z,100880.09
2022-07-29T11:33:11.147Z,100883.28
2022-07-29T11:36:17.141Z,100882.94
2022-07-29T11:39:00.178Z,100876.38
2022-07-29T11:41:47.889Z,100873.50
2022-07-29T11:45:42.563Z,100866.25
2022-07-29T11:48:29.034Z,100871.75
2022-07-29T11:51:18.885Z,100878.13
2022-07-29T11:54:27.256Z,100867.81
2022-07-29T11:57:15.862Z,100880.78
2022-07-29T12:00:04.766Z,100890.44
2022-07-29T12:02:59.945Z,100900.50
2022-07-29T12:05:51.982Z,100902.84
2022-07-29T12:08:33.886Z,100903.41
2022-07-29T12:11:26.070Z,100901.44
2022-07-29T12:14:06.863Z,100889.22
2022-07-29T12:16:55.209Z,100890.84
2022-07-29T12:19:35.862Z,100899.88
2022-07-29T12:22:27.266Z,100899.59
2022-07-29T12:25:33.060Z,100903.69
2022-07-29T12:28:26.433Z,100900.31
2022-07-29T12:31:43.070Z,100899.75
2022-07-29T12:34:18.452Z,100901.53
2022-07-29T12:37:05.829Z,100898.59
2022-07-29T12:39:55.836Z,100899.53
2022-07-29T12:42:37.146Z,100910.84
2022-07-29T12:45:36.809Z,100906.50
2022-07-29T12:48:19.045Z,100900.09
2022-07-29T12:51:08.979Z,100898.94
2022-07-29T12:53:50.215Z,100905.78
2022-07-29T12:56:45.523Z,100903.59
2022-07-29T12:59:29.032Z,100896.84
2022-07-29T13:02:29.849Z,100888.09
2022-07-29T13:05:21.794Z,100891.34
2022-07-29T13:08:21.946Z,100897.41
2022-07-29T13:11:04.039Z,100904.66
2022-07-29T13:14:06.830Z,100910.81
2022-07-29T13:17:13.132Z,100922.25
2022-07-29T13:20:16.778Z,100920.84
2022-07-29T13:22:58.027Z,100920.69
2022-07-29T13:25:48.773Z,100931.53
2022-07-29T13:28:36.756Z,100930.19
2022-07-29T13:31:31.772Z,100935.56
2022-07-29T13:34:19.847Z,100939.44
2022-07-29T13:37:03.193Z,100940.75
2022-07-29T13:39:52.888Z,100947.13
2022-07-29T13:42:41.743Z,100946.94
2022-07-29T13:45:29.786Z,100945.28
2022-07-29T13:48:12.219Z,100952.25
2022-07-29T13:51:00.747Z,100958.28
2022-07-29T13:53:43.962Z,100955.44
2022-07-29T13:56:31.734Z,100962.72
2022-07-29T13:59:12.971Z,100960.50
2022-07-29T14:02:01.187Z,100964.03
2022-07-29T14:04:49.769Z,100967.25
2022-07-29T14:07:37.966Z,100966.22
2022-07-29T14:10:20.692Z,100964.72
2022-07-29T14:13:24.439Z,100971.41
2022-07-29T14:16:05.928Z,100975.09
2022-07-29T14:18:54.720Z,100964.72
2022-07-29T14:21:35.946Z,100961.81
2022-07-29T14:24:24.697Z,100959.38
2022-07-29T14:27:15.709Z,100965.06
2022-07-29T14:30:10.706Z,100965.03
2022-07-29T14:32:58.677Z,100964.47
2022-07-29T14:35:40.270Z,100973.25
2022-07-29T14:38:27.681Z,100971.91
2022-07-29T14:41:09.894Z,100963.28
2022-07-29T14:44:00.661Z,100973.59
2022-07-29T14:46:49.490Z,100965.91
2022-07-29T14:49:37.875Z,100969.81
2022-07-29T14:52:18.704Z,100963.00
2022-07-29T14:55:16.258Z,100972.19
2022-07-29T14:58:09.691Z,100962.59
2022-07-29T15:00:59.746Z,100966.25
2022-07-29T15:03:40.882Z,100968.91
2022-07-29T15:06:28.638Z,100969.31
2022-07-29T15:09:10.844Z,100967.72
2022-07-29T15:12:00.076Z,100987.63
2022-07-29T15:14:41.215Z,100974.75
2022-07-29T15:17:30.656Z,100971.97
2022-07-29T15:20:34.602Z,100968.75
2022-07-29T15:23:22.633Z,100968.84
2022-07-29T15:26:03.862Z,100972.50
2022-07-29T15:28:51.607Z,100967.13
2022-07-29T15:31:46.711Z,100961.06
2022-07-29T15:34:36.585Z,100974.78
2022-07-29T15:37:24.669Z,100974.97
2022-07-29T15:40:14.602Z,100982.84
2022-07-29T15:42:55.831Z,100984.66
2022-07-29T15:45:45.642Z,100982.66
2022-07-29T15:48:26.809Z,100985.25
2022-07-29T15:51:16.590Z,100987.16
2022-07-29T15:54:04.590Z,100987.84
2022-07-29T15:56:52.591Z,100989.22
2022-07-29T15:59:41.697Z,100994.88
2022-07-29T16:02:29.818Z,100996.81
2022-07-29T16:05:11.579Z,100995.16
2022-07-29T16:08:00.801Z,100998.88
2022-07-29T16:10:42.549Z,101008.13
2022-07-29T16:13:30.557Z,101000.78
2022-07-29T16:16:12.845Z,101001.66
2022-07-29T16:19:00.532Z,101010.94
2022-07-29T16:21:41.793Z,101014.97
2022-07-29T16:24:36.535Z,101003.47
2022-07-29T16:27:24.534Z,101015.16
2022-07-29T16:30:14.575Z,101023.00
2022-07-29T16:32:55.751Z,101012.09
2022-07-29T16:35:45.528Z,101022.44
2022-07-29T16:38:26.862Z,101024.53
2022-07-29T16:41:16.597Z,101033.63
2022-07-29T16:44:04.515Z,101026.75
2022-07-29T16:46:46.933Z,101030.97
2022-07-29T16:49:37.603Z,101035.84
2022-07-29T16:52:20.000Z,101036.41
2022-07-29T16:55:07.533Z,101038.31
2022-07-29T16:57:52.679Z,101038.72
2022-07-29T17:00:40.562Z,101031.56
2022-07-29T17:03:28.610Z,101043.53
2022-07-29T17:06:09.691Z,101040.69
2022-07-29T17:08:57.502Z,101033.56
2022-07-29T17:11:53.544Z,101039.16
2022-07-29T17:14:44.478Z,101037.63
2022-07-29T17:17:39.404Z,101034.28
2022-07-29T17:20:34.461Z,101034.13
2022-07-29T17:23:15.652Z,101041.94
2022-07-29T17:26:03.444Z,101043.63
2022-07-29T17:28:44.663Z,101048.25
2022-07-29T17:31:34.507Z,101047.44
2022-07-29T17:34:15.646Z,101046.63
2022-07-29T17:37:03.462Z,101053.16
2022-07-29T17:39:45.753Z,101048.97
2022-07-29T17:42:33.436Z,101048.44
2022-07-29T17:45:22.414Z,101042.88
2022-07-29T17:48:13.430Z,101036.22
2022-07-29T17:51:02.424Z,101043.41
2022-07-29T17:53:50.475Z,101040.75
2022-07-29T17:56:32.642Z,101047.78
2022-07-29T17:59:21.428Z,101047.72
2022-07-29T18:02:02.701Z,101044.94
2022-07-29T18:04:52.399Z,101042.31
2022-07-29T18:07:33.840Z,101046.06
2022-07-29T18:10:21.405Z,101045.31
2022-07-29T18:13:02.867Z,101053.06
2022-07-29T18:15:51.459Z,101047.28
2022-07-29T18:18:32.575Z,101058.63
2022-07-29T18:21:43.597Z,101058.13
2022-07-29T18:24:31.372Z,101054.81
2022-07-29T18:27:20.224Z,101056.25
2022-07-29T18:30:08.375Z,101053.16
2022-07-29T18:33:19.605Z,101067.38
2022-07-29T18:36:07.672Z,101073.50
2022-07-29T18:39:01.579Z,101061.72
2022-07-29T18:41:46.057Z,101065.19
2022-07-29T18:44:43.874Z,101056.78
2022-07-29T18:47:32.218Z,101066.16
2022-07-29T18:50:23.693Z,101066.53
2022-07-29T18:53:14.336Z,101072.25
2022-07-29T18:56:04.321Z,101079.59
2022-07-29T18:58:52.326Z,101076.56
2022-07-29T19:01:40.405Z,101088.38
2022-07-29T19:04:22.616Z,101091.88
2022-07-29T19:07:11.321Z,101099.13
2022-07-29T19:09:52.623Z,101103.53
2022-07-29T19:12:42.330Z,101109.38
2022-07-29T19:15:30.473Z,101104.88
2022-07-29T19:18:20.314Z,101103.94
2022-07-29T19:21:08.454Z,101110.63
2022-07-29T19:24:00.403Z,101105.78
2022-07-29T19:26:54.312Z,101118.78
2022-07-29T19:29:50.278Z,101113.22
2022-07-29T19:32:38.277Z,101114.69
2022-07-29T19:35:32.263Z,101107.34
2022-07-29T19:38:14.409Z,101118.19
2022-07-29T19:41:02.429Z,101120.97
2022-07-29T19:43:53.086Z,101116.63
2022-07-29T19:46:36.315Z,101128.88
2022-07-29T19:49:18.038Z,101130.25
2022-07-29T19:52:06.253Z,101132.25
2022-07-29T19:54:54.456Z,101135.19
2022-07-29T19:57:40.866Z,101136.13
2022-07-29T20:00:25.273Z,101147.03
2022-07-29T20:03:15.323Z,101146.44
2022-07-29T20:06:03.437Z,101152.28
2022-07-29T20:08:45.336Z,101150.16
2022-07-29T20:11:29.867Z,101153.09
2022-07-29T20:14:18.241Z,101141.47
2022-07-29T20:17:06.237Z,101141.25
2022-07-29T20:19:56.213Z,101142.50
2022-07-29T20:22:44.751Z,101149.88
2022-07-29T20:25:25.206Z,101151.75
2022-07-29T20:28:14.203Z,101153.56
2022-07-29T20:31:02.245Z,101153.75
2022-07-29T20:33:43.930Z,101172.41
2022-07-29T20:36:33.267Z,101177.88
2022-07-29T20:39:21.189Z,101187.84
2022-07-29T20:42:09.239Z,101183.84
2022-07-29T20:44:58.128Z,101183.84
2022-07-29T20:47:39.236Z,101191.00
2022-07-29T20:50:29.282Z,101190.31
2022-07-29T20:53:12.371Z,101190.59
2022-07-29T20:56:00.287Z,101204.09
2022-07-29T20:58:42.796Z,101208.69
2022-07-29T21:01:30.359Z,101216.03
2022-07-29T21:04:12.370Z,101206.63
2022-07-29T21:07:01.527Z,101212.00
2022-07-29T21:09:51.165Z,101211.63
2022-07-29T21:12:39.341Z,101221.41
2022-07-29T21:15:23.145Z,101217.06
2022-07-29T21:18:26.815Z,101214.53
2022-07-29T21:21:09.148Z,101213.69
2022-07-29T21:23:57.336Z,101201.28
2022-07-29T21:26:40.109Z,101192.25
2022-07-29T21:29:27.185Z,101195.63
2022-07-29T21:32:27.593Z,101191.41
2022-07-29T21:35:23.415Z,101180.41
2022-07-29T21:38:20.109Z,101178.25
2022-07-29T21:41:10.864Z,101166.44
2022-07-29T21:43:54.228Z,101173.13
2022-07-29T21:46:46.319Z,101163.75
2022-07-29T21:49:27.281Z,101166.69
2022-07-29T21:52:09.181Z,101164.13
2022-07-29T21:54:57.157Z,101169.50
2022-07-29T21:57:45.288Z,101166.88
2022-07-29T22:00:29.084Z,101172.03
2022-07-29T22:03:18.154Z,101167.59
2022-07-29T22:06:06.061Z,101170.44
2022-07-29T22:08:54.305Z,101177.84
2022-07-29T22:11:35.200Z,101179.97
2022-07-29T22:14:25.148Z,101188.91
2022-07-29T22:17:08.470Z,101184.19
2022-07-29T22:19:56.072Z,101185.75
2022-07-29T22:22:37.342Z,101203.22
2022-07-29T22:25:25.042Z,101208.50
2022-07-29T22:28:06.277Z,101197.13
2022-07-29T22:31:01.104Z,101203.31
2022-07-29T22:33:50.262Z,101203.47
2022-07-29T22:36:32.153Z,101194.72
2022-07-29T22:39:20.291Z,101185.06
2022-07-29T22:42:02.063Z,101191.53
2022-07-29T22:44:43.846Z,101185.50
2022-07-29T22:47:48.040Z,101175.91
2022-07-29T22:50:31.266Z,101177.38
2022-07-29T22:53:19.006Z,101169.88
2022-07-29T22:56:07.319Z,101171.59
2022-07-29T22:58:48.115Z,101180.63
2022-07-29T23:01:38.109Z,101176.78
2022-07-29T23:04:19.090Z,101183.75
2022-07-29T23:07:02.384Z,101189.50
2022-07-29T23:09:49.991Z,101192.69
2022-07-29T23:12:31.859Z,101186.50
2022-07-29T23:15:20.982Z,101192.59
2022-07-29T23:18:17.668Z,101197.75
2022-07-29T23:20:59.157Z,101201.97
2022-07-29T23:23:49.173Z,101214.28
2022-07-29T23:26:29.981Z,101211.56
2022-07-29T23:29:11.728Z,101212.31
2022-07-29T23:31:59.966Z,101219.56
2022-07-29T23:34:48.163Z,101206.84
2022-07-29T23:37:28.925Z,101216.19
2022-07-29T23:40:20.004Z,101212.22
2022-07-29T23:43:08.601Z,101209.03
2022-07-29T23:45:58.202Z,101206.56
2022-07-29T23:48:39.983Z,101213.69
2022-07-29T23:51:29.182Z,101212.81
2022-07-29T23:54:10.114Z,101207.56
2022-07-29T23:57:00.096Z,101217.06
2022-07-29T23:59:47.905Z,101209.97
